Time;durP1;ratioP1;P1;durP2;ratioP2;P2;SDS_P1;SDS_P2;PMS_P1;PMS_P2;Temp;Humidity;BMP_temperature;BMP_pressure;BME280_temperature;BME280_humidity;BME280_pressure;Samples;Min_cycle;Max_cycle;Signal;HPM_P1;HPM_P2
2023/05/22 00:00:51;;;;;;;29.55;19.48;;;20.20;99.90;;;;;;5055844;28;20513;-74
2023/05/22 00:03:17;;;;;;;26.77;19.02;;;20.20;99.90;;;;;;5051584;28;20423;-74
2023/05/22 00:05:43;;;;;;;25.75;19.73;;;20.10;99.90;;;;;;5055273;28;20017;-74
2023/05/22 00:08:10;;;;;;;25.30;17.85;;;20.10;99.90;;;;;;5035937;28;20485;-74
2023/05/22 00:10:39;;;;;;;24.38;17.90;;;20.10;99.90;;;;;;5054442;28;20029;-74
2023/05/22 00:13:04;;;;;;;30.23;20.33;;;20.10;99.90;;;;;;5041205;28;20113;-74
2023/05/22 00:15:31;;;;;;;29.52;19.85;;;20.00;99.90;;;;;;5051615;28;20066;-74
2023/05/22 00:17:57;;;;;;;30.55;19.85;;;20.00;99.90;;;;;;5049762;28;20029;-74
2023/05/22 00:20:25;;;;;;;29.42;20.60;;;20.00;99.90;;;;;;5050968;28;20040;-74
2023/05/22 00:22:51;;;;;;;30.60;19.65;;;20.00;99.90;;;;;;5050329;28;20024;-75
2023/05/22 00:25:18;;;;;;;35.38;22.02;;;19.90;99.90;;;;;;5059410;28;20477;-74
2023/05/22 00:27:44;;;;;;;33.60;21.13;;;20.00;99.90;;;;;;5051522;28;20091;-75
2023/05/22 00:30:10;;;;;;;36.40;21.65;;;19.90;99.90;;;;;;5062821;28;20473;-74
2023/05/22 00:32:36;;;;;;;30.13;22.95;;;19.90;99.90;;;;;;5059595;28;20031;-74
2023/05/22 00:35:02;;;;;;;36.08;24.58;;;19.80;99.90;;;;;;5042090;28;20041;-74
2023/05/22 00:37:28;;;;;;;29.55;20.58;;;19.80;99.90;;;;;;5052322;28;20071;-74
2023/05/22 00:39:54;;;;;;;29.17;21.02;;;19.80;99.90;;;;;;5059362;28;20016;-74
2023/05/22 00:42:21;;;;;;;31.65;21.92;;;19.80;99.90;;;;;;5054462;28;20102;-74
2023/05/22 00:44:47;;;;;;;35.35;23.10;;;19.70;99.90;;;;;;5051565;28;20032;-75
2023/05/22 00:47:13;;;;;;;33.97;22.67;;;19.70;99.90;;;;;;5033174;28;20149;-74
2023/05/22 00:49:40;;;;;;;37.08;24.75;;;19.70;99.90;;;;;;5033364;28;20021;-74
2023/05/22 00:52:06;;;;;;;31.40;24.23;;;19.60;99.90;;;;;;5033839;28;20029;-74
2023/05/22 00:54:32;;;;;;;34.13;24.13;;;19.70;99.90;;;;;;5056380;28;20025;-74
2023/05/22 00:57:00;;;;;;;34.67;23.35;;;19.70;99.90;;;;;;5054852;28;20036;-74
2023/05/22 00:59:26;;;;;;;39.60;24.60;;;19.70;99.90;;;;;;5057835;28;20024;-74
2023/05/22 01:01:53;;;;;;;31.90;24.02;;;19.70;99.90;;;;;;5040134;28;20111;-74
2023/05/22 01:04:19;;;;;;;35.70;26.33;;;19.60;99.90;;;;;;5059804;28;20016;-74
2023/05/22 01:06:46;;;;;;;32.17;25.15;;;19.50;99.90;;;;;;5033792;28;20122;-74
2023/05/22 01:09:13;;;;;;;35.53;23.88;;;19.50;99.90;;;;;;5053789;28;20017;-74
2023/05/22 01:12:17;;;;;;;35.15;24.02;;;19.50;99.90;;;;;;5052092;28;20074;-74
2023/05/22 01:14:58;;;;;;;35.75;24.90;;;19.50;99.90;;;;;;5024233;28;20045;-74
2023/05/22 01:17:46;;;;;;;34.83;25.35;;;19.50;99.90;;;;;;5051973;28;20029;-74
2023/05/22 01:20:33;;;;;;;36.65;24.15;;;19.50;99.90;;;;;;5050546;28;20060;-74
2023/05/22 01:23:19;;;;;;;34.05;25.42;;;19.40;99.90;;;;;;5033501;28;20033;-74
2023/05/22 01:26:01;;;;;;;34.10;24.15;;;19.40;99.90;;;;;;5033637;28;20025;-74
2023/05/22 01:28:27;;;;;;;34.40;23.43;;;19.40;99.90;;;;;;5051434;28;20091;-74
2023/05/22 01:31:05;;;;;;;30.88;21.50;;;19.40;99.90;;;;;;5052568;28;20061;-74
2023/05/22 01:33:36;;;;;;;29.15;23.23;;;19.30;99.90;;;;;;5054352;28;20025;-74
2023/05/22 01:36:06;;;;;;;42.67;25.48;;;19.30;99.90;;;;;;5035364;28;20443;-74
2023/05/22 01:38:33;;;;;;;29.48;21.95;;;19.30;99.90;;;;;;5049525;28;20555;-74
2023/05/22 01:40:59;;;;;;;34.65;24.60;;;19.20;99.90;;;;;;5049330;28;20096;-74
2023/05/22 01:43:26;;;;;;;32.92;23.85;;;19.30;99.90;;;;;;5044577;28;20028;-74
2023/05/22 01:45:51;;;;;;;33.15;24.80;;;19.20;99.90;;;;;;5054110;28;20021;-74
2023/05/22 01:48:17;;;;;;;35.72;25.75;;;19.20;99.90;;;;;;5054316;28;20043;-74
2023/05/22 01:50:44;;;;;;;34.58;24.83;;;19.20;99.90;;;;;;5058945;28;20103;-74
2023/05/22 01:53:19;;;;;;;32.20;22.35;;;19.10;99.90;;;;;;5047363;28;20025;-73
2023/05/22 01:56:04;;;;;;;35.58;24.02;;;19.20;99.90;;;;;;5032513;28;20396;-74
2023/05/22 01:58:44;;;;;;;34.45;23.30;;;19.10;99.90;;;;;;5054606;28;20051;-73
2023/05/22 02:01:12;;;;;;;31.90;24.08;;;19.10;99.90;;;;;;5039318;28;20032;-74
2023/05/22 02:03:39;;;;;;;36.88;24.52;;;19.00;99.90;;;;;;5054419;28;20026;-74
2023/05/22 02:06:08;;;;;;;31.80;23.95;;;19.00;99.90;;;;;;5056052;28;20079;-75
2023/05/22 02:08:39;;;;;;;43.58;23.77;;;19.00;99.90;;;;;;5055339;28;20041;-74
2023/05/22 02:11:06;;;;;;;34.33;22.95;;;19.00;99.90;;;;;;5048229;28;20025;-74
2023/05/22 02:13:32;;;;;;;38.63;24.20;;;19.00;99.90;;;;;;5048888;28;20033;-73
2023/05/22 02:15:58;;;;;;;35.50;22.98;;;18.90;99.90;;;;;;5056593;28;20028;-74
2023/05/22 02:18:30;;;;;;;37.17;21.92;;;18.90;99.90;;;;;;5050694;28;20025;-74
2023/05/22 02:20:56;;;;;;;36.90;24.45;;;18.90;99.90;;;;;;5051580;28;20024;-73
2023/05/22 02:23:23;;;;;;;39.90;26.13;;;18.70;99.90;;;;;;5054460;28;20025;-73
2023/05/22 02:25:48;;;;;;;34.25;24.75;;;18.80;99.90;;;;;;5054126;28;20436;-74
2023/05/22 02:28:14;;;;;;;35.70;23.42;;;18.80;99.90;;;;;;5048954;28;20072;-74
2023/05/22 02:30:40;;;;;;;36.38;24.08;;;18.80;99.90;;;;;;5057604;28;20017;-74
2023/05/22 02:33:08;;;;;;;35.53;24.00;;;18.70;99.90;;;;;;5054429;28;20021;-75
2023/05/22 02:35:34;;;;;;;38.83;25.65;;;18.70;99.90;;;;;;5051305;28;20032;-75
2023/05/22 02:38:00;;;;;;;36.72;25.20;;;18.70;99.90;;;;;;5056023;28;20024;-75
2023/05/22 02:40:26;;;;;;;37.17;24.55;;;18.70;99.90;;;;;;5061455;28;20416;-75
2023/05/22 02:42:51;;;;;;;36.92;25.00;;;18.70;99.90;;;;;;5061614;28;20029;-75
2023/05/22 02:45:17;;;;;;;40.08;24.08;;;18.60;99.90;;;;;;5038393;28;20384;-76
2023/05/22 02:47:43;;;;;;;37.88;25.77;;;18.60;99.90;;;;;;5052425;28;20035;-75
2023/05/22 02:50:09;;;;;;;40.58;26.17;;;18.50;99.90;;;;;;5041104;28;20040;-74
2023/05/22 02:52:35;;;;;;;38.95;25.95;;;18.50;99.90;;;;;;5058453;28;20102;-75
2023/05/22 02:55:06;;;;;;;38.45;24.60;;;18.50;99.90;;;;;;5060710;28;20051;-75
2023/05/22 02:57:35;;;;;;;42.08;25.45;;;18.50;99.90;;;;;;5061973;28;20115;-74
2023/05/22 03:00:01;;;;;;;33.60;23.30;;;18.50;99.90;;;;;;5060081;28;20103;-75
2023/05/22 03:02:31;;;;;;;37.50;23.65;;;18.50;99.90;;;;;;5070897;28;20464;-75
2023/05/22 03:05:00;;;;;;;39.55;23.40;;;18.50;99.90;;;;;;5070760;28;20419;-74
2023/05/22 03:07:28;;;;;;;32.65;24.80;;;18.50;99.90;;;;;;5070232;28;20029;-74
2023/05/22 03:09:54;;;;;;;36.13;24.98;;;18.50;99.90;;;;;;5062713;28;20013;-74
2023/05/22 03:12:20;;;;;;;37.42;24.17;;;18.50;99.90;;;;;;5056653;28;20048;-74
2023/05/22 03:14:46;;;;;;;39.90;27.20;;;18.40;99.90;;;;;;5053694;28;20021;-74
2023/05/22 03:17:12;;;;;;;38.05;26.17;;;18.40;99.90;;;;;;5060590;28;20029;-74
2023/05/22 03:19:37;;;;;;;36.05;25.83;;;18.40;99.90;;;;;;5059970;28;20070;-74
2023/05/22 03:22:03;;;;;;;47.40;25.63;;;18.30;99.90;;;;;;5062692;28;20445;-74
2023/05/22 03:24:30;;;;;;;39.03;26.60;;;18.30;99.90;;;;;;5060485;28;20040;-74
2023/05/22 03:26:56;;;;;;;45.10;26.42;;;18.30;99.90;;;;;;5061549;28;20043;-74
2023/05/22 03:29:21;;;;;;;42.17;25.75;;;18.30;99.90;;;;;;5062455;28;20106;-74
2023/05/22 03:31:47;;;;;;;42.17;27.50;;;18.20;99.90;;;;;;5060762;28;20032;-74
2023/05/22 03:34:13;;;;;;;41.65;27.83;;;18.20;99.90;;;;;;5061816;28;20509;-74
2023/05/22 03:36:40;;;;;;;40.92;27.90;;;18.20;99.90;;;;;;5060869;28;20497;-74
2023/05/22 03:39:05;;;;;;;45.60;28.27;;;18.10;99.90;;;;;;5051447;28;20029;-74
2023/05/22 03:41:31;;;;;;;45.60;28.73;;;18.10;99.90;;;;;;5052473;28;20016;-75
2023/05/22 03:43:57;;;;;;;48.05;29.30;;;18.10;99.90;;;;;;5070471;28;20032;-74
2023/05/22 03:46:23;;;;;;;51.35;30.20;;;18.10;99.90;;;;;;5055503;28;20067;-74
2023/05/22 03:48:49;;;;;;;43.67;29.08;;;18.00;99.90;;;;;;5054918;28;20435;-74
2023/05/22 03:51:15;;;;;;;46.38;30.63;;;18.10;99.90;;;;;;5055072;28;20025;-73
2023/05/22 03:53:41;;;;;;;44.55;30.15;;;18.00;99.90;;;;;;5055180;28;20381;-74
2023/05/22 03:56:06;;;;;;;45.45;32.28;;;18.00;99.90;;;;;;5054610;28;20032;-73
2023/05/22 03:58:32;;;;;;;50.67;33.25;;;18.00;99.90;;;;;;5055489;28;20035;-74
2023/05/22 04:00:59;;;;;;;46.42;29.63;;;18.00;99.90;;;;;;5055183;28;20033;-74
2023/05/22 04:03:26;;;;;;;48.63;31.38;;;18.00;99.90;;;;;;5053594;28;20040;-74
2023/05/22 04:05:52;;;;;;;51.90;30.73;;;17.90;99.90;;;;;;5052807;28;20104;-74
2023/05/22 04:08:17;;;;;;;53.75;33.15;;;17.90;99.90;;;;;;5054101;28;20444;-74
2023/05/22 04:10:45;;;;;;;50.97;30.23;;;17.90;99.90;;;;;;5054420;28;20029;-73
2023/05/22 04:13:12;;;;;;;48.75;31.50;;;18.00;99.90;;;;;;5055011;28;20120;-74
2023/05/22 04:15:40;;;;;;;48.42;29.83;;;18.00;99.90;;;;;;5052809;28;20021;-74
2023/05/22 04:18:06;;;;;;;52.60;30.95;;;18.00;99.90;;;;;;5062422;28;20031;-74
2023/05/22 04:20:32;;;;;;;59.85;35.55;;;18.00;99.90;;;;;;5055328;28;20049;-74
2023/05/22 04:22:58;;;;;;;54.60;32.60;;;17.90;99.90;;;;;;5054407;28;20060;-73
2023/05/22 04:25:24;;;;;;;58.58;34.53;;;17.90;99.90;;;;;;5054523;28;20047;-74
2023/05/22 04:27:49;;;;;;;57.67;34.35;;;18.00;99.90;;;;;;5054599;28;20474;-74
2023/05/22 04:30:15;;;;;;;56.08;35.10;;;17.90;99.90;;;;;;5054644;28;20537;-74
2023/05/22 04:32:42;;;;;;;58.58;36.15;;;17.80;99.90;;;;;;5054804;28;20108;-74
2023/05/22 04:35:11;;;;;;;61.45;37.15;;;17.80;99.90;;;;;;5054466;28;20021;-75
2023/05/22 04:37:41;;;;;;;59.95;37.08;;;17.70;99.90;;;;;;5053092;28;20021;-74
2023/05/22 04:40:10;;;;;;;66.68;38.50;;;17.70;99.90;;;;;;5053584;28;20101;-74
2023/05/22 04:42:37;;;;;;;68.00;37.80;;;17.80;99.90;;;;;;5061499;28;20036;-74
2023/05/22 04:45:06;;;;;;;58.92;36.08;;;17.70;99.90;;;;;;5064195;28;20029;-74
2023/05/22 04:47:31;;;;;;;65.72;37.38;;;17.80;99.90;;;;;;5036740;28;20115;-74
2023/05/22 04:49:58;;;;;;;63.25;36.08;;;17.80;99.90;;;;;;5035807;28;20533;-73
2023/05/22 04:52:25;;;;;;;64.93;40.58;;;17.90;99.90;;;;;;5054003;28;20021;-74
2023/05/22 04:54:51;;;;;;;67.65;39.17;;;17.90;99.90;;;;;;5053430;28;20021;-74
2023/05/22 04:57:20;;;;;;;63.03;39.58;;;17.90;99.90;;;;;;5059944;28;20036;-74
2023/05/22 04:59:46;;;;;;;66.63;39.95;;;17.80;99.90;;;;;;5074304;28;20025;-74
2023/05/22 05:02:13;;;;;;;69.97;41.47;;;17.90;99.90;;;;;;5062883;28;20056;-74
2023/05/22 05:04:39;;;;;;;69.00;40.17;;;17.90;99.90;;;;;;5053732;28;20063;-74
2023/05/22 05:07:05;;;;;;;76.85;43.28;;;17.90;99.90;;;;;;5057217;28;20453;-73
2023/05/22 05:09:32;;;;;;;65.63;40.88;;;17.90;99.90;;;;;;5073584;28;20484;-74
2023/05/22 05:11:57;;;;;;;67.63;41.65;;;18.00;99.90;;;;;;5073868;28;20025;-74
2023/05/22 05:14:23;;;;;;;65.05;37.20;;;17.90;99.90;;;;;;5055661;28;20044;-74
2023/05/22 05:16:53;;;;;;;72.40;39.63;;;17.90;99.90;;;;;;5073895;28;20502;-73
2023/05/22 05:19:22;;;;;;;72.30;42.72;;;17.90;99.90;;;;;;5072542;28;20051;-74
2023/05/22 05:21:48;;;;;;;77.22;42.15;;;17.80;99.90;;;;;;5072572;28;20017;-73
2023/05/22 05:24:17;;;;;;;71.80;40.95;;;17.90;99.90;;;;;;5060541;28;20039;-74
2023/05/22 05:26:43;;;;;;;74.00;42.13;;;17.90;99.90;;;;;;5053572;28;20074;-74
2023/05/22 05:29:09;;;;;;;68.68;42.92;;;17.90;99.90;;;;;;5053631;28;20027;-74
2023/05/22 05:31:35;;;;;;;79.32;42.10;;;17.80;99.90;;;;;;5052942;28;20384;-74
2023/05/22 05:34:01;;;;;;;68.90;41.35;;;17.70;99.90;;;;;;5035674;28;20013;-74
2023/05/22 05:36:28;;;;;;;69.93;41.45;;;17.60;99.90;;;;;;5053318;28;20104;-74
2023/05/22 05:38:53;;;;;;;71.10;40.63;;;17.60;99.90;;;;;;5034488;28;20441;-74
2023/05/22 05:41:20;;;;;;;76.03;46.00;;;17.70;99.90;;;;;;5052479;28;20037;-75
2023/05/22 05:43:46;;;;;;;69.82;43.17;;;17.80;99.90;;;;;;5070352;28;20021;-74
2023/05/22 05:46:12;;;;;;;75.97;45.22;;;17.80;99.90;;;;;;5073120;28;20033;-74
2023/05/22 05:48:37;;;;;;;85.68;48.22;;;17.70;99.90;;;;;;5072402;28;20043;-75
2023/05/22 05:51:04;;;;;;;83.45;46.88;;;17.70;99.90;;;;;;5071336;28;20437;-74
2023/05/22 05:53:29;;;;;;;83.30;46.35;;;17.60;99.90;;;;;;5052338;28;20021;-74
2023/05/22 05:55:55;;;;;;;85.13;45.80;;;17.70;99.90;;;;;;5051442;28;20661;-74
2023/05/22 05:58:21;;;;;;;78.57;47.20;;;17.70;99.90;;;;;;5051241;28;20029;-75
2023/05/22 06:00:46;;;;;;;82.20;49.13;;;17.70;99.90;;;;;;5052357;28;20032;-74
2023/05/22 06:03:12;;;;;;;84.78;48.08;;;17.60;99.90;;;;;;5052942;28;20025;-74
2023/05/22 06:05:38;;;;;;;83.10;49.30;;;17.60;99.90;;;;;;5052890;28;20104;-74
2023/05/22 06:08:04;;;;;;;94.43;54.60;;;17.70;99.90;;;;;;5052729;28;20037;-74
2023/05/22 06:10:30;;;;;;;92.85;51.30;;;17.70;99.90;;;;;;5067672;28;20052;-74
2023/05/22 06:12:56;;;;;;;90.55;49.33;;;17.60;99.90;;;;;;5067394;28;20550;-74
2023/05/22 06:15:22;;;;;;;88.93;53.38;;;17.60;99.90;;;;;;5054019;28;20488;-74
2023/05/22 06:17:48;;;;;;;85.47;51.22;;;17.70;99.90;;;;;;5065594;28;20026;-74
2023/05/22 06:20:14;;;;;;;92.10;49.58;;;17.70;99.90;;;;;;5052972;28;20025;-74
2023/05/22 06:22:40;;;;;;;89.93;53.78;;;17.80;99.90;;;;;;5034750;28;20079;-74
2023/05/22 06:25:06;;;;;;;93.38;55.67;;;17.80;99.90;;;;;;5052563;28;20025;-74
2023/05/22 06:27:31;;;;;;;96.30;54.40;;;17.80;99.90;;;;;;5052555;28;20041;-75
2023/05/22 06:29:59;;;;;;;93.85;52.80;;;17.70;99.90;;;;;;5069577;28;20396;-74
2023/05/22 06:32:24;;;;;;;96.72;53.45;;;17.60;99.90;;;;;;5071082;28;20031;-74
2023/05/22 06:34:50;;;;;;;96.72;53.58;;;17.60;99.90;;;;;;5067371;28;20025;-74
2023/05/22 06:37:16;;;;;;;99.95;54.72;;;17.70;99.90;;;;;;5064464;28;20060;-74
2023/05/22 06:39:42;;;;;;;90.40;51.97;;;17.80;99.90;;;;;;5052344;28;20025;-75
2023/05/22 06:42:07;;;;;;;100.93;54.17;;;17.80;99.90;;;;;;5056003;28;20021;-74
2023/05/22 06:44:34;;;;;;;101.22;58.22;;;17.80;99.90;;;;;;5059595;28;20044;-74
2023/05/22 06:47:00;;;;;;;89.95;53.78;;;17.80;99.90;;;;;;5060868;28;20179;-74
2023/05/22 06:49:26;;;;;;;91.65;54.10;;;17.80;99.90;;;;;;5044245;28;20505;-74
2023/05/22 06:51:52;;;;;;;95.53;53.08;;;17.80;99.90;;;;;;5061830;28;20120;-74
2023/05/22 06:54:20;;;;;;;105.45;60.78;;;17.90;99.90;;;;;;5053276;28;20104;-74
2023/05/22 06:56:45;;;;;;;118.68;60.95;;;17.90;99.90;;;;;;5060018;28;20063;-74
2023/05/22 06:59:11;;;;;;;105.40;56.95;;;17.90;99.90;;;;;;5055706;28;20499;-74
2023/05/22 07:01:37;;;;;;;93.85;55.38;;;18.00;99.90;;;;;;5057080;28;20032;-74
2023/05/22 07:04:03;;;;;;;113.82;59.65;;;18.10;99.90;;;;;;5054767;28;20362;-74
2023/05/22 07:06:37;;;;;;;111.25;57.88;;;18.10;99.90;;;;;;5056029;28;20503;-75
2023/05/22 07:09:04;;;;;;;114.15;60.70;;;18.10;99.90;;;;;;5063575;28;20111;-74
2023/05/22 07:11:30;;;;;;;111.78;58.45;;;18.10;99.90;;;;;;5057559;28;20481;-75
2023/05/22 07:13:56;;;;;;;117.65;60.50;;;18.10;99.90;;;;;;5055305;28;20106;-75
2023/05/22 07:16:24;;;;;;;108.78;58.63;;;18.20;99.90;;;;;;5062884;28;20029;-75
2023/05/22 07:18:50;;;;;;;108.07;57.00;;;18.20;99.90;;;;;;5060492;28;20103;-75
2023/05/22 07:21:15;;;;;;;117.13;63.30;;;18.20;99.90;;;;;;5063045;28;20100;-75
2023/05/22 07:23:41;;;;;;;117.30;61.10;;;18.10;99.90;;;;;;5061303;28;21625;-75
2023/05/22 07:26:08;;;;;;;116.05;63.28;;;18.10;99.90;;;;;;5065720;28;20751;-74
2023/05/22 07:28:34;;;;;;;114.78;59.22;;;18.10;99.90;;;;;;5057818;28;20041;-75
2023/05/22 07:31:00;;;;;;;135.38;64.55;;;18.20;99.90;;;;;;5065274;28;20393;-74
2023/05/22 07:33:26;;;;;;;136.88;68.05;;;18.20;99.90;;;;;;5059402;28;20025;-74
2023/05/22 07:35:51;;;;;;;134.73;65.53;;;18.30;99.90;;;;;;5062708;28;20048;-74
2023/05/22 07:38:17;;;;;;;131.50;71.00;;;18.20;99.90;;;;;;5069096;28;20032;-75
2023/05/22 07:40:43;;;;;;;132.13;65.55;;;18.20;99.90;;;;;;5059306;28;20076;-75
2023/05/22 07:43:09;;;;;;;138.05;65.60;;;18.30;99.90;;;;;;5057250;28;20071;-74
2023/05/22 07:45:35;;;;;;;122.97;62.45;;;18.30;99.90;;;;;;5057398;28;20066;-75
2023/05/22 07:48:02;;;;;;;138.82;66.78;;;18.30;99.90;;;;;;5062721;28;20041;-75
2023/05/22 07:50:29;;;;;;;142.30;67.57;;;18.40;99.90;;;;;;5046894;28;20366;-75
2023/05/22 07:52:55;;;;;;;123.30;64.18;;;18.40;99.90;;;;;;5060274;28;20041;-75
2023/05/22 07:55:21;;;;;;;118.10;60.20;;;18.30;99.90;;;;;;5052357;28;20028;-75
2023/05/22 07:57:46;;;;;;;127.50;67.13;;;18.20;99.90;;;;;;5060421;28;20111;-75
2023/05/22 08:00:13;;;;;;;127.05;62.47;;;18.30;99.90;;;;;;5047857;28;20381;-75
2023/05/22 08:02:41;;;;;;;135.23;64.22;;;18.10;99.90;;;;;;5064630;28;20033;-75
2023/05/22 08:05:08;;;;;;;146.60;68.35;;;18.20;99.90;;;;;;5050751;28;20508;-75
2023/05/22 08:07:35;;;;;;;143.10;69.88;;;18.20;99.90;;;;;;5059570;28;20041;-75
2023/05/22 08:10:07;;;;;;;157.10;71.82;;;18.20;99.90;;;;;;5060983;28;20047;-75
2023/05/22 08:12:32;;;;;;;152.50;69.75;;;18.30;99.90;;;;;;5058018;28;20350;-75
2023/05/22 08:14:58;;;;;;;152.63;69.88;;;18.30;99.90;;;;;;5048516;28;20052;-74
2023/05/22 08:17:24;;;;;;;149.57;69.97;;;18.40;99.90;;;;;;5058929;28;20028;-75
2023/05/22 08:19:50;;;;;;;141.52;67.05;;;18.40;99.90;;;;;;5043931;28;20108;-75
2023/05/22 08:22:15;;;;;;;137.55;67.22;;;18.50;99.90;;;;;;5057938;28;20036;-75
2023/05/22 08:24:41;;;;;;;139.65;66.07;;;18.40;99.90;;;;;;5063591;28;20489;-75
2023/05/22 08:27:07;;;;;;;136.63;64.25;;;18.50;99.90;;;;;;5057161;28;20449;-74
2023/05/22 08:29:32;;;;;;;130.30;64.43;;;18.50;99.90;;;;;;5064969;28;20029;-75
2023/05/22 08:31:58;;;;;;;136.73;65.22;;;18.70;99.90;;;;;;5057584;28;20037;-74
2023/05/22 08:34:24;;;;;;;128.77;63.13;;;18.70;99.90;;;;;;5057349;28;20119;-74
2023/05/22 08:36:50;;;;;;;132.70;64.53;;;18.70;99.90;;;;;;5064681;28;20108;-74
2023/05/22 08:39:17;;;;;;;115.68;57.03;;;18.70;99.90;;;;;;5047925;28;20358;-75
2023/05/22 08:41:43;;;;;;;109.00;59.10;;;18.70;99.90;;;;;;5062930;28;20051;-75
2023/05/22 08:44:12;;;;;;;107.30;54.00;;;18.80;99.90;;;;;;5056222;28;20152;-74
2023/05/22 08:46:40;;;;;;;109.40;58.13;;;18.80;99.90;;;;;;5062678;28;20047;-74
2023/05/22 08:49:07;;;;;;;108.25;55.75;;;18.90;99.90;;;;;;5062626;28;20143;-75
2023/05/22 08:51:37;;;;;;;116.90;59.67;;;18.90;99.90;;;;;;5049754;28;20468;-74
2023/05/22 08:54:07;;;;;;;118.07;59.58;;;19.00;99.90;;;;;;5055114;28;20016;-75
2023/05/22 08:56:33;;;;;;;114.10;58.05;;;19.00;99.90;;;;;;5047278;28;20166;-74
2023/05/22 08:59:00;;;;;;;114.55;57.53;;;19.10;99.90;;;;;;5060511;28;20579;-75
2023/05/22 09:01:28;;;;;;;111.45;56.53;;;19.10;99.90;;;;;;5043973;28;20056;-75
2023/05/22 09:03:58;;;;;;;105.28;56.00;;;19.20;99.90;;;;;;5058425;28;20525;-75
2023/05/22 09:06:23;;;;;;;112.75;56.97;;;19.20;99.90;;;;;;5056950;28;20029;-75
2023/05/22 09:08:50;;;;;;;101.75;54.55;;;19.20;99.90;;;;;;5056250;28;20504;-75
2023/05/22 09:11:16;;;;;;;108.85;55.10;;;19.30;99.90;;;;;;5057590;28;20403;-75
2023/05/22 09:13:43;;;;;;;103.72;54.13;;;19.20;99.90;;;;;;5059401;28;20084;-75
2023/05/22 09:16:11;;;;;;;118.20;58.92;;;19.20;99.90;;;;;;5055157;28;20037;-74
2023/05/22 09:18:41;;;;;;;110.80;58.60;;;19.20;99.90;;;;;;5063246;28;20103;-75
2023/05/22 09:21:07;;;;;;;113.10;61.65;;;19.30;99.90;;;;;;5058189;28;20474;-75
2023/05/22 09:23:33;;;;;;;116.07;59.38;;;19.30;99.90;;;;;;5061013;28;20056;-76
2023/05/22 09:26:01;;;;;;;107.45;58.85;;;19.30;99.90;;;;;;5057263;28;20040;-75
2023/05/22 09:28:31;;;;;;;109.95;57.58;;;19.30;99.90;;;;;;5061459;28;20473;-75
2023/05/22 09:30:57;;;;;;;103.63;55.50;;;19.40;99.90;;;;;;5063865;28;20027;-74
2023/05/22 09:33:23;;;;;;;109.93;59.22;;;19.40;99.90;;;;;;5059887;28;20127;-74
2023/05/22 09:35:52;;;;;;;101.47;54.10;;;19.40;99.90;;;;;;5055617;28;20860;-75
2023/05/22 09:38:21;;;;;;;99.60;54.47;;;19.50;99.90;;;;;;5048350;28;20021;-78
2023/05/22 09:40:52;;;;;;;93.88;50.20;;;19.60;99.90;;;;;;5054462;28;20040;-76
2023/05/22 09:43:18;;;;;;;88.63;49.20;;;19.70;99.90;;;;;;5059339;28;20090;-75
2023/05/22 09:45:43;;;;;;;94.20;48.88;;;19.70;99.90;;;;;;5058522;28;20523;-75
2023/05/22 09:48:09;;;;;;;92.97;52.78;;;19.80;99.90;;;;;;5058324;28;20040;-75
2023/05/22 09:50:35;;;;;;;89.05;50.75;;;19.90;99.90;;;;;;5044214;28;20505;-75
2023/05/22 09:53:03;;;;;;;88.65;51.03;;;19.90;99.90;;;;;;5056591;28;20448;-75
2023/05/22 09:55:30;;;;;;;84.13;47.65;;;19.90;99.90;;;;;;5059716;28;20139;-75
2023/05/22 09:58:01;;;;;;;80.85;48.40;;;20.10;99.90;;;;;;5055202;28;20036;-75
2023/05/22 10:00:27;;;;;;;73.82;46.05;;;20.20;99.90;;;;;;5061990;28;20082;-76
2023/05/22 10:03:02;;;;;;;84.63;50.45;;;20.20;99.90;;;;;;5053604;28;20115;-75
2023/05/22 10:05:30;;;;;;;78.75;50.70;;;20.10;99.90;;;;;;5059301;28;20029;-76
2023/05/22 10:08:16;;;;;;;80.93;48.22;;;20.20;99.90;;;;;;5057741;28;20044;-76
2023/05/22 10:10:45;;;;;;;79.20;50.45;;;20.20;99.90;;;;;;5053866;28;20039;-76
2023/05/22 10:13:11;;;;;;;84.93;52.13;;;20.20;99.90;;;;;;5056909;28;20432;-76
2023/05/22 10:15:38;;;;;;;88.68;50.97;;;20.20;99.90;;;;;;5059934;28;20473;-75
2023/05/22 10:18:04;;;;;;;90.38;52.45;;;20.40;99.90;;;;;;5059221;28;20115;-76
2023/05/22 10:20:30;;;;;;;79.30;48.53;;;20.50;99.90;;;;;;5057839;28;20547;-76
2023/05/22 10:22:56;;;;;;;78.50;49.55;;;20.50;99.90;;;;;;5051277;28;20037;-75
2023/05/22 10:25:22;;;;;;;79.40;50.40;;;20.50;99.90;;;;;;5046745;28;20020;-75
2023/05/22 10:27:51;;;;;;;77.32;49.70;;;20.70;99.90;;;;;;5048974;28;20037;-74
2023/05/22 10:30:24;;;;;;;81.00;51.80;;;20.70;99.90;;;;;;5013855;28;20025;-75
2023/05/22 10:33:15;;;;;;;80.97;50.92;;;20.80;99.90;;;;;;5055508;28;20024;-74
2023/05/22 10:35:51;;;;;;;76.78;47.88;;;20.80;99.90;;;;;;5054400;28;20492;-75
2023/05/22 10:38:38;;;;;;;77.13;49.50;;;20.90;99.90;;;;;;5052178;28;20020;-74
2023/05/22 10:41:05;;;;;;;72.82;47.85;;;21.20;99.90;;;;;;5035531;28;20035;-75
2023/05/22 10:43:32;;;;;;;76.72;50.45;;;21.30;99.90;;;;;;5035075;28;20500;-75
2023/05/22 10:46:06;;;;;;;78.72;46.92;;;21.30;99.90;;;;;;5035909;28;20094;-74
2023/05/22 10:48:38;;;;;;;72.72;48.42;;;21.40;99.90;;;;;;5050892;28;20037;-74
2023/05/22 10:51:06;;;;;;;68.03;46.97;;;21.30;99.90;;;;;;5052229;28;20107;-76
2023/05/22 10:53:32;;;;;;;66.72;44.40;;;21.40;99.90;;;;;;5049305;28;20475;-75
2023/05/22 10:56:07;;;;;;;74.75;48.40;;;21.50;99.90;;;;;;5052927;28;20028;-76
2023/05/22 10:58:37;;;;;;;75.15;47.45;;;21.60;99.90;;;;;;5050800;28;20037;-74
2023/05/22 11:01:17;;;;;;;66.95;46.78;;;21.60;99.90;;;;;;5050449;28;20033;-73
2023/05/22 11:03:57;;;;;;;75.85;49.67;;;21.60;99.90;;;;;;5056161;28;20032;-74
2023/05/22 11:06:40;;;;;;;68.72;46.67;;;22.00;99.90;;;;;;5053798;28;20086;-75
2023/05/22 11:09:19;;;;;;;66.28;46.42;;;22.10;99.90;;;;;;5057489;28;20032;-75
2023/05/22 11:11:45;;;;;;;72.05;45.80;;;22.00;99.90;;;;;;5052522;28;20024;-75
2023/05/22 11:14:14;;;;;;;74.55;47.05;;;21.90;99.90;;;;;;5048938;28;20043;-76
2023/05/22 11:16:40;;;;;;;69.43;47.08;;;22.00;99.90;;;;;;5038571;28;20024;-75
2023/05/22 11:19:07;;;;;;;70.32;48.25;;;22.30;99.90;;;;;;5054078;28;20470;-75
2023/05/22 11:21:50;;;;;;;68.47;44.60;;;22.40;99.90;;;;;;5053959;28;20108;-75
2023/05/22 11:24:16;;;;;;;68.22;46.63;;;22.60;99.90;;;;;;5056089;28;20029;-75
2023/05/22 11:26:43;;;;;;;66.50;44.35;;;23.00;99.90;;;;;;5034677;28;20024;-76
2023/05/22 11:29:09;;;;;;;62.95;44.75;;;23.20;99.90;;;;;;5054106;28;20492;-75
2023/05/22 11:31:36;;;;;;;71.43;48.03;;;23.20;99.90;;;;;;5047470;28;20021;-75
2023/05/22 11:34:02;;;;;;;67.05;45.90;;;23.20;99.90;;;;;;5051558;28;20024;-74
2023/05/22 11:36:28;;;;;;;65.35;43.45;;;23.30;99.90;;;;;;5051227;28;20150;-74
2023/05/22 11:39:01;;;;;;;72.15;46.83;;;23.30;99.90;;;;;;5035574;28;20031;-74
2023/05/22 11:41:33;;;;;;;67.80;45.35;;;23.10;99.90;;;;;;5052505;28;20039;-74
2023/05/22 11:44:00;;;;;;;75.90;47.70;;;23.10;99.90;;;;;;5035401;28;20036;-74
2023/05/22 11:46:28;;;;;;;68.40;47.42;;;23.00;99.90;;;;;;5035143;28;20037;-72
2023/05/22 11:48:55;;;;;;;66.70;44.47;;;23.50;99.90;;;;;;5053645;28;20090;-72
2023/05/22 11:51:21;;;;;;;65.82;45.88;;;23.80;99.90;;;;;;5051292;28;20021;-73
2023/05/22 11:53:47;;;;;;;63.25;44.80;;;24.10;99.90;;;;;;5050494;28;20128;-74
2023/05/22 11:56:12;;;;;;;66.25;45.55;;;24.10;99.90;;;;;;5035326;28;20036;-73
2023/05/22 11:58:38;;;;;;;62.00;41.33;;;24.10;99.90;;;;;;5051883;28;20026;-75
2023/05/22 12:01:05;;;;;;;62.08;43.55;;;24.40;99.90;;;;;;5049886;28;20079;-74
2023/05/22 12:03:31;;;;;;;54.83;37.75;;;24.30;99.90;;;;;;5051099;28;20480;-73
2023/05/22 12:05:57;;;;;;;62.15;40.72;;;24.30;99.90;;;;;;5036634;28;20554;-74
2023/05/22 12:08:24;;;;;;;58.22;40.10;;;24.30;99.90;;;;;;5054410;28;20037;-74
2023/05/22 12:10:51;;;;;;;53.35;39.30;;;24.20;99.90;;;;;;5055763;28;20465;-74
2023/05/22 12:13:27;;;;;;;58.63;41.13;;;24.10;99.90;;;;;;5040283;28;20065;-75
2023/05/22 12:15:56;;;;;;;61.30;39.38;;;24.00;99.90;;;;;;5049250;28;20512;-74
2023/05/22 12:18:21;;;;;;;51.85;37.67;;;24.10;99.90;;;;;;5055656;28;20043;-74
2023/05/22 12:20:53;;;;;;;53.20;38.55;;;24.10;99.90;;;;;;5055467;28;20017;-75
2023/05/22 12:23:23;;;;;;;60.35;41.33;;;24.00;99.90;;;;;;5056888;28;20032;-74
2023/05/22 12:26:08;;;;;;;56.63;38.47;;;23.90;99.90;;;;;;5054505;28;20071;-74
2023/05/22 12:28:37;;;;;;;59.63;42.05;;;23.90;99.90;;;;;;5024247;28;20036;-74